createdAt,value
2023-09-17T07:16:25.852Z,96872.38
2023-09-17T07:18:31.492Z,96864.44
2023-09-17T07:20:33.532Z,96871.22
2023-09-17T07:22:36.655Z,96862.06
2023-09-17T07:24:39.553Z,96869.38
2023-09-17T07:26:43.624Z,96865.09
2023-09-17T07:28:46.487Z,96865.09
2023-09-17T07:30:55.470Z,96874.25
2023-09-17T07:32:59.709Z,96862.38
2023-09-17T07:35:03.931Z,96865.59
2023-09-17T07:37:07.036Z,96874.47
2023-09-17T07:39:10.326Z,96874.75
2023-09-17T07:41:13.948Z,96872.56
2023-09-17T07:43:16.742Z,96886.63
2023-09-17T07:45:20.306Z,96877.69
2023-09-17T07:47:23.242Z,96873.09
2023-09-17T07:49:29.284Z,96877.16
2023-09-17T07:51:32.217Z,96869.34
2023-09-17T07:53:35.096Z,96867.16
2023-09-17T07:55:37.493Z,96880.66
2023-09-17T07:57:40.309Z,96875.78
2023-09-17T07:59:43.271Z,96877.94
2023-09-17T08:01:48.494Z,96874.69
2023-09-17T08:03:52.154Z,96867.13
2023-09-17T08:05:58.046Z,96869.56
2023-09-17T08:08:02.172Z,96869.84
2023-09-17T08:10:05.775Z,96880.88
2023-09-17T08:12:12.126Z,96882.50
2023-09-17T08:14:15.372Z,96873.03
2023-09-17T08:16:20.952Z,96870.31
2023-09-17T08:18:23.892Z,96868.16
2023-09-17T08:20:26.885Z,96875.72
2023-09-17T08:22:31.198Z,96872.47
2023-09-17T08:24:34.336Z,96875.69
2023-09-17T08:26:37.345Z,96868.91
2023-09-17T08:28:42.257Z,96866.75
2023-09-17T08:30:45.194Z,96866.50
2023-09-17T08:32:48.352Z,96869.72
2023-09-17T08:34:51.264Z,96869.72
2023-09-17T08:36:54.568Z,96865.94
2023-09-17T08:38:58.965Z,96868.34
2023-09-17T08:41:04.141Z,96868.06
2023-09-17T08:43:07.488Z,96869.69
2023-09-17T08:45:11.045Z,96868.59
2023-09-17T08:47:14.783Z,96864.28
2023-09-17T08:49:18.840Z,96860.50
2023-09-17T08:51:25.716Z,96862.91
2023-09-17T08:53:33.026Z,96874.28
2023-09-17T08:55:37.441Z,96868.59
2023-09-17T08:57:42.605Z,96862.91
2023-09-17T08:59:48.878Z,96859.91
2023-09-17T09:01:54.320Z,96862.63
2023-09-17T09:03:58.295Z,96864.22
2023-09-17T09:06:02.339Z,96857.16
2023-09-17T09:08:05.982Z,96860.13
2023-09-17T09:10:09.828Z,96862.28
2023-09-17T09:12:14.201Z,96859.84
2023-09-17T09:14:17.800Z,96858.47
2023-09-17T09:16:20.970Z,96856.56
2023-09-17T09:18:24.279Z,96856.56
2023-09-17T09:20:27.830Z,96852.25
2023-09-17T09:22:30.690Z,96853.31
2023-09-17T09:24:43.121Z,96853.00
2023-09-17T09:26:46.986Z,96851.66
2023-09-17T09:28:51.634Z,96842.75
2023-09-17T09:30:54.972Z,96854.91
2023-09-17T09:32:58.638Z,96852.47
2023-09-17T09:35:02.612Z,96852.19
2023-09-17T09:37:06.510Z,96840.28
2023-09-17T09:39:09.535Z,96840.28
2023-09-17T09:41:14.258Z,96842.72
2023-09-17T09:43:31.569Z,96842.72
2023-09-17T09:45:37.433Z,96832.72
2023-09-17T09:47:40.289Z,96830.00
2023-09-17T09:49:43.888Z,96828.97
2023-09-17T09:51:46.744Z,96824.66
2023-09-17T09:53:50.681Z,96824.66
2023-09-17T09:55:53.999Z,96833.28
2023-09-17T09:57:57.977Z,96827.88
2023-09-17T10:00:07.869Z,96829.47
2023-09-17T10:02:14.842Z,96823.28
2023-09-17T10:04:20.230Z,96816.78
2023-09-17T10:06:23.106Z,96821.91
2023-09-17T10:08:25.972Z,96825.41
2023-09-17T10:10:28.958Z,96815.69
2023-09-17T10:12:31.913Z,96811.59
2023-09-17T10:14:38.225Z,96817.56
2023-09-17T10:16:42.603Z,96812.69
2023-09-17T10:18:47.409Z,96812.38
2023-09-17T10:20:52.750Z,96813.72
2023-09-17T10:22:56.599Z,96814.22
2023-09-17T10:24:59.491Z,96816.41
2023-09-17T10:27:02.260Z,96809.09
2023-09-17T10:29:06.360Z,96806.38
2023-09-17T10:31:10.912Z,96808.81
2023-09-17T10:33:15.532Z,96809.09
2023-09-17T10:35:20.246Z,96808.00
2023-09-17T10:37:23.841Z,96801.78
2023-09-17T10:39:29.461Z,96793.69
2023-09-17T10:41:34.423Z,96785.56
2023-09-17T10:43:38.311Z,96791.78
2023-09-17T10:45:43.325Z,96791.78
2023-09-17T10:47:47.276Z,96781.78
2023-09-17T10:49:50.845Z,96785.00
2023-09-17T10:51:56.630Z,96776.88
2023-09-17T10:53:59.590Z,96771.47
2023-09-17T10:56:09.156Z,96773.09
2023-09-17T10:58:16.483Z,96770.38
2023-09-17T11:00:23.589Z,96775.78
2023-09-17T11:02:27.581Z,96781.72
2023-09-17T11:04:32.934Z,96774.69
2023-09-17T11:06:37.444Z,96777.09
2023-09-17T11:08:43.480Z,96772.50
2023-09-17T11:10:46.561Z,96776.03
2023-09-17T11:12:49.833Z,96767.09
2023-09-17T11:14:53.469Z,96765.22
2023-09-17T11:16:56.962Z,96767.09
2023-09-17T11:19:06.839Z,96766.53
2023-09-17T11:21:13.794Z,96755.72
2023-09-17T11:23:17.330Z,96764.38
2023-09-17T11:25:35.323Z,96762.47
2023-09-17T11:27:50.450Z,96754.06
2023-09-17T11:29:53.358Z,96757.56
2023-09-17T11:32:02.473Z,96754.59
2023-09-17T11:34:11.130Z,96747.56
2023-09-17T11:36:14.235Z,96742.69
2023-09-17T11:38:17.370Z,96747.00
2023-09-17T11:40:21.815Z,96751.59
2023-09-17T11:42:24.980Z,96748.59
2023-09-17T11:44:27.063Z,96752.91
2023-09-17T11:46:30.032Z,96746.41
2023-09-17T11:48:34.555Z,96751.81
2023-09-17T11:50:37.417Z,96753.47
2023-09-17T11:52:40.407Z,96751.56
2023-09-17T11:54:52.302Z,96743.44
2023-09-17T11:56:56.658Z,96744.25
2023-09-17T11:59:06.455Z,96750.19
2023-09-17T12:01:08.509Z,96739.34
2023-09-17T12:03:13.074Z,96744.47
2023-09-17T12:05:16.876Z,96739.06
2023-09-17T12:07:19.921Z,96731.25
2023-09-17T12:09:24.656Z,96734.47
2023-09-17T12:11:28.280Z,96736.06
2023-09-17T12:13:32.986Z,96733.38
2023-09-17T12:15:36.048Z,96740.13
2023-09-17T12:17:44.573Z,96733.63
2023-09-17T12:19:50.270Z,96726.59
2023-09-17T12:21:55.706Z,96735.78
2023-09-17T12:23:58.546Z,96736.59
2023-09-17T12:26:01.484Z,96730.88
2023-09-17T12:28:04.755Z,96728.97
2023-09-17T12:30:12.461Z,96724.09
2023-09-17T12:32:18.336Z,96720.28
2023-09-17T12:34:22.060Z,96721.09
2023-09-17T12:36:25.038Z,96723.50
2023-09-17T12:38:27.941Z,96715.13
2023-09-17T12:40:31.094Z,96707.22
2023-09-17T12:42:35.389Z,96710.44
2023-09-17T12:44:38.451Z,96713.66
2023-09-17T12:46:43.313Z,96710.09
2023-09-17T12:48:46.502Z,96699.28
2023-09-17T12:50:49.459Z,96699.00
2023-09-17T12:52:53.329Z,96695.19
2023-09-17T12:55:00.878Z,96698.69
2023-09-17T12:57:04.151Z,96695.69
2023-09-17T12:59:07.091Z,96691.91
2023-09-17T13:01:10.876Z,96688.38
2023-09-17T13:03:16.128Z,96688.09
2023-09-17T13:05:23.080Z,96689.69
2023-09-17T13:07:27.881Z,96681.59
2023-09-17T13:09:32.734Z,96683.50
2023-09-17T13:11:36.489Z,96684.28
2023-09-17T13:13:39.437Z,96682.69
2023-09-17T13:15:42.425Z,96678.88
2023-09-17T13:17:45.731Z,96686.69
2023-09-17T13:19:50.304Z,96679.13
2023-09-17T13:21:53.250Z,96680.72
2023-09-17T13:23:56.336Z,96672.81
2023-09-17T13:25:59.313Z,96677.94
2023-09-17T13:28:12.661Z,96674.13
2023-09-17T13:30:18.567Z,96673.56
2023-09-17T13:32:21.611Z,96664.88
2023-09-17T13:34:24.738Z,96659.97
2023-09-17T13:36:29.707Z,96649.94
2023-09-17T13:38:32.938Z,96665.09
2023-09-17T13:40:35.853Z,96664.28
2023-09-17T13:42:38.749Z,96667.78
2023-09-17T13:44:40.699Z,96658.56
2023-09-17T13:46:47.281Z,96656.38
2023-09-17T13:48:50.520Z,96653.38
2023-09-17T13:50:53.687Z,96656.06
2023-09-17T13:52:59.076Z,96647.16
2023-09-17T13:55:01.970Z,96637.97
2023-09-17T13:57:04.935Z,96639.56
2023-09-17T13:59:07.693Z,96637.97
2023-09-17T14:01:11.047Z,96636.31
2023-09-17T14:03:15.993Z,96630.91
2023-09-17T14:05:19.172Z,96627.13
2023-09-17T14:07:22.073Z,96629.53
2023-09-17T14:09:26.277Z,96637.38
2023-09-17T14:11:29.049Z,96634.66
2023-09-17T14:13:34.093Z,96625.75
2023-09-17T14:15:40.458Z,96622.22
2023-09-17T14:17:42.283Z,96624.94
2023-09-17T14:19:45.180Z,96627.03
2023-09-17T14:21:48.754Z,96611.31
2023-09-17T14:23:51.764Z,96613.72
2023-09-17T14:25:56.757Z,96613.72
2023-09-17T14:27:59.836Z,96619.94
2023-09-17T14:30:05.330Z,96608.84
2023-09-17T14:32:08.355Z,96613.19
2023-09-17T14:34:11.282Z,96602.34
2023-09-17T14:36:14.128Z,96602.06
2023-09-17T14:38:16.982Z,96605.88
2023-09-17T14:40:19.831Z,96596.63
2023-09-17T14:42:24.063Z,96604.75
2023-09-17T14:44:28.557Z,96590.94
2023-09-17T14:46:32.861Z,96588.53
2023-09-17T14:48:35.647Z,96583.09
2023-09-17T14:50:38.544Z,96590.13
2023-09-17T14:52:40.693Z,96588.53
2023-09-17T14:54:43.470Z,96577.69
2023-09-17T14:56:46.244Z,96576.59
2023-09-17T14:58:51.129Z,96573.88
2023-09-17T15:00:53.178Z,96570.06
2023-09-17T15:02:56.311Z,96575.50
2023-09-17T15:04:59.388Z,96564.66
2023-09-17T15:07:03.005Z,96562.75
2023-09-17T15:09:06.577Z,96567.88
2023-09-17T15:11:09.429Z,96563.25
2023-09-17T15:13:12.280Z,96558.63
2023-09-17T15:15:15.800Z,96554.84
2023-09-17T15:17:19.345Z,96557.53
2023-09-17T15:19:22.196Z,96559.16
2023-09-17T15:21:27.034Z,96561.84
2023-09-17T15:23:29.842Z,96561.06
2023-09-17T15:25:32.617Z,96562.16
2023-09-17T15:27:35.638Z,96552.41
2023-09-17T15:29:38.726Z,96555.44
2023-09-17T15:31:45.665Z,96553.81
2023-09-17T15:33:50.161Z,96548.41
2023-09-17T15:35:53.910Z,96543.28
2023-09-17T15:37:57.787Z,96538.19
2023-09-17T15:40:00.894Z,96528.44
2023-09-17T15:42:03.210Z,96533.03
2023-09-17T15:44:07.408Z,96531.13
2023-09-17T15:46:10.302Z,96529.53
2023-09-17T15:48:14.561Z,96536.53
2023-09-17T15:50:17.505Z,96517.91
2023-09-17T15:52:20.506Z,96531.97
2023-09-17T15:54:23.409Z,96527.34
2023-09-17T15:56:26.241Z,96530.06
2023-09-17T15:58:29.331Z,96531.66
2023-09-17T16:00:32.956Z,96531.66
2023-09-17T16:02:35.941Z,96526.25
2023-09-17T16:04:41.826Z,96528.97
2023-09-17T16:06:44.882Z,96519.22
2023-09-17T16:08:47.758Z,96522.22
2023-09-17T16:10:51.183Z,96516.25
2023-09-17T16:12:55.724Z,96515.47
2023-09-17T16:15:00.786Z,96519.28
2023-09-17T16:17:04.160Z,96513.84
2023-09-17T16:19:07.148Z,96513.84
2023-09-17T16:21:12.534Z,96513.06
2023-09-17T16:23:15.369Z,96506.53
2023-09-17T16:25:18.422Z,96499.53
2023-09-17T16:27:21.292Z,96495.19
2023-09-17T16:29:24.418Z,96496.00
2023-09-17T16:31:27.824Z,96489.00
2023-09-17T16:33:31.378Z,96487.09
2023-09-17T16:35:34.358Z,96490.91
2023-09-17T16:37:38.648Z,96492.81
2023-09-17T16:39:41.544Z,96491.19
2023-09-17T16:41:44.819Z,96485.78
2023-09-17T16:43:47.831Z,96480.66
2023-09-17T16:45:49.846Z,96482.56
2023-09-17T16:47:53.963Z,96487.47
2023-09-17T16:49:56.868Z,96490.16
2023-09-17T16:51:59.719Z,96489.34
2023-09-17T16:54:04.886Z,96482.34
2023-09-17T16:56:07.985Z,96482.63
2023-09-17T16:58:10.010Z,96467.50
2023-09-17T17:00:14.051Z,96470.22
2023-09-17T17:02:17.122Z,96468.91
2023-09-17T17:04:20.028Z,96474.31
2023-09-17T17:06:22.947Z,96469.22
2023-09-17T17:08:26.095Z,96476.22
2023-09-17T17:10:30.718Z,96470.31
2023-09-17T17:12:32.800Z,96474.91
2023-09-17T17:14:35.630Z,96465.16
2023-09-17T17:16:38.721Z,96457.06
2023-09-17T17:18:41.727Z,96457.88
2023-09-17T17:20:44.560Z,96470.88
2023-09-17T17:22:49.342Z,96453.03
2023-09-17T17:24:52.493Z,96458.44
2023-09-17T17:26:56.832Z,96461.47
2023-09-17T17:28:59.770Z,96470.38
2023-09-17T17:31:03.000Z,96460.16
2023-09-17T17:33:07.200Z,96454.75
2023-09-17T17:35:11.988Z,96459.66
2023-09-17T17:37:15.092Z,96459.94
2023-09-17T17:39:18.126Z,96464.56
2023-09-17T17:41:21.031Z,96471.03
2023-09-17T17:43:24.265Z,96459.41
2023-09-17T17:45:27.028Z,96446.19
2023-09-17T17:47:33.526Z,96442.19
2023-09-17T17:49:37.007Z,96456.50
2023-09-17T17:51:39.993Z,96451.41
2023-09-17T17:53:42.769Z,96444.38
2023-09-17T17:55:45.729Z,96441.97
2023-09-17T17:57:48.696Z,96448.19
2023-09-17T17:59:52.969Z,96451.19
2023-09-17T18:01:56.544Z,96461.47
2023-09-17T18:03:59.619Z,96451.47
2023-09-17T18:06:02.885Z,96450.16
2023-09-17T18:08:06.272Z,96460.97
2023-09-17T18:10:12.546Z,96459.38
2023-09-17T18:12:15.313Z,96455.06
2023-09-17T18:14:18.323Z,96443.75
2023-09-17T18:16:22.615Z,96442.13
2023-09-17T18:18:25.594Z,96440.53
2023-09-17T18:20:28.837Z,96440.53
2023-09-17T18:22:30.887Z,96451.34
2023-09-17T18:24:33.764Z,96451.34
2023-09-17T18:26:36.609Z,96457.06
2023-09-17T18:28:39.454Z,96449.22
2023-09-17T18:30:42.294Z,96445.72
2023-09-17T18:32:46.535Z,96443.00
2023-09-17T18:34:49.408Z,96434.09
2023-09-17T18:36:53.072Z,96430.59
2023-09-17T18:38:56.352Z,96439.50
2023-09-17T18:40:59.261Z,96437.09
2023-09-17T18:43:03.548Z,96445.19
2023-09-17T18:45:10.959Z,96454.13
2023-09-17T18:47:14.374Z,96449.00
2023-09-17T18:49:19.852Z,96449.81
2023-09-17T18:51:22.982Z,96453.63
2023-09-17T18:53:25.945Z,96453.31
2023-09-17T18:55:29.034Z,96450.91
2023-09-17T18:57:31.929Z,96451.72
2023-09-17T18:59:35.037Z,96463.63
2023-09-17T19:01:39.957Z,96460.94
2023-09-17T19:03:43.233Z,96466.34
2023-09-17T19:05:47.724Z,96465.53
2023-09-17T19:07:51.264Z,96473.66
2023-09-17T19:09:54.174Z,96476.34
2023-09-17T19:11:59.423Z,96479.66
2023-09-17T19:14:02.695Z,96482.56
2023-09-17T19:16:05.694Z,96473.66
2023-09-17T19:18:10.833Z,96468.53
2023-09-17T19:20:13.736Z,96464.72
2023-09-17T19:22:17.632Z,96472.03
2023-09-17T19:24:20.527Z,96467.72
2023-09-17T19:26:23.621Z,96473.44
2023-09-17T19:28:25.666Z,96471.53
2023-09-17T19:30:28.525Z,96467.22
2023-09-17T19:32:31.457Z,96469.94
2023-09-17T19:34:33.765Z,96474.53
2023-09-17T19:36:36.688Z,96477.25
2023-09-17T19:38:41.045Z,96478.03
2023-09-17T19:40:44.021Z,96472.94
2023-09-17T19:42:46.957Z,96466.47
2023-09-17T19:44:49.739Z,96471.31
2023-09-17T19:46:59.452Z,96478.06
2023-09-17T19:49:03.661Z,96490.50
2023-09-17T19:51:09.958Z,96491.59
2023-09-17T19:53:13.017Z,96481.06
2023-09-17T19:55:17.467Z,96474.88
2023-09-17T19:57:20.278Z,96484.88
2023-09-17T19:59:23.153Z,96478.66
2023-09-17T20:01:26.262Z,96483.28
2023-09-17T20:03:29.254Z,96471.66
2023-09-17T20:05:33.509Z,96475.47
2023-09-17T20:07:38.083Z,96456.81
2023-09-17T20:09:40.880Z,96453.31
2023-09-17T20:11:44.847Z,96450.63
2023-09-17T20:13:47.921Z,96447.09
2023-09-17T20:15:51.197Z,96435.47
2023-09-17T20:17:57.468Z,96434.66
2023-09-17T20:20:00.668Z,96444.66
2023-09-17T20:22:03.701Z,96444.97
2023-09-17T20:24:07.235Z,96454.97
2023-09-17T20:26:10.883Z,96463.09
2023-09-17T20:28:15.365Z,96470.09
2023-09-17T20:30:17.177Z,96497.94
2023-09-17T20:32:20.079Z,96530.09
2023-09-17T20:34:25.376Z,96549.56
2023-09-17T20:36:28.274Z,96541.44
2023-09-17T20:38:31.169Z,96533.34
2023-09-17T20:40:34.225Z,96527.94
2023-09-17T20:42:37.131Z,96498.69
2023-09-17T20:44:41.108Z,96457.38
2023-09-17T20:46:43.907Z,96407.50
2023-09-17T20:48:46.702Z,96364.63
2023-09-17T20:50:49.746Z,96365.00
2023-09-17T20:52:52.456Z,96374.13
2023-09-17T20:54:55.228Z,96383.25
2023-09-17T20:56:58.936Z,96408.59
2023-09-17T20:59:01.961Z,96423.72
2023-09-17T21:01:06.248Z,96442.66
2023-09-17T21:03:09.450Z,96454.25
2023-09-17T21:05:13.126Z,96458.56
2023-09-17T21:07:16.114Z,96460.97
2023-09-17T21:09:26.466Z,96457.19
2023-09-17T21:11:29.287Z,96465.00
2023-09-17T21:13:32.151Z,96471.19
2023-09-17T21:15:35.092Z,96471.19
2023-09-17T21:17:40.793Z,96471.19
2023-09-17T21:19:44.024Z,96452.28
2023-09-17T21:21:46.903Z,96446.38
2023-09-17T21:23:49.653Z,96449.38
2023-09-17T21:25:52.866Z,96439.34
2023-09-17T21:27:55.731Z,96437.75
2023-09-17T21:29:58.534Z,96425.84
2023-09-17T21:32:00.584Z,96421.22
2023-09-17T21:34:04.840Z,96436.66
2023-09-17T21:36:06.865Z,96436.66
2023-09-17T21:38:09.863Z,96433.94
2023-09-17T21:40:14.286Z,96434.75
2023-09-17T21:42:17.129Z,96428.53
2023-09-17T21:44:19.038Z,96435.56
